Terminal Aerodrome Forecast
Issued by NWS Charleston, WV

Current Version | Previous Version | Text Only | Print | Product List | Glossary Off
Versions: 1 2 3 4 5 6 7 8 9 10 11 12 13 14 15 16 17 18 19 20 21 22 23 24 25 26 27 28

000
FTUS41 KRLX 221100
TAFBKW
TAF
KBKW 221126Z 2212/2312 VRB03KT 6SM -SHRA BR BKN007
      TEMPO 2212/2214 VRB12KT 2SM -TSRA BR BKN012CB
     FM221400 29007KT P6SM BKN020
     FM221800 30007KT 4SM +TSRA BR BKN025CB
     FM230100 VRB03KT 6SM BR BKN025
     FM230700 VRB03KT 2SM BR BKN010=

USA.gov is the U.S. government's official web portal to all federal, state and local government web resources and services.